DW4338 Bergen NO current weather conditions

sailwx.info

Wind from 360 at 17 knots gusting 33

Air temperature 2.8° C
Dewpoint 1.9° C

Last reported at 2017-Feb-21 07:49 UTC.
Time now 2017-Feb-21 08:08 UTC

Location: N 60°31' E 004°54'.
View on Google Maps.

See reports from other nearby stations

  
Tides and Currents Weather Stations Pressure Air Temp Water Temp Dewpoint Dewpoint Depression Visibility Wind Speed Wind Dir Waves Ship Positions
date/time (UTC)wind fromknots sea level pressurealtimeterstation pressurevisibilityair tempwater tempwave heightnotes
2017-Feb-21 07:49 360 17 gusting 33 2.8
2017-Feb-21 07:34 360 19 gusting 53 3.3
2017-Feb-21 07:19 355 15 gusting 33 3.3
2017-Feb-21 07:04 355 19 gusting 42 3.3
2017-Feb-21 06:49 344 11 gusting 32 3.3
2017-Feb-21 06:34 351 6 gusting 18 3.3
2017-Feb-21 06:19 333 13 gusting 28 3.3
2017-Feb-21 06:04 355 7 gusting 21 3.3
2017-Feb-21 05:50 311 18 gusting 45 3.3
2017-Feb-21 05:34 309 22 gusting 39 3.3
2017-Feb-21 05:19 321 36 gusting 55 3.9
2017-Feb-21 05:04 294 44 gusting 72 4.4
2017-Feb-21 04:49 329 39 gusting 66 4.4
2017-Feb-21 04:34 298 38 gusting 80 3.9
2017-Feb-21 04:18 327 51 gusting 83 3.9
2017-Feb-21 04:03 310 34 gusting 66 4.4
2017-Feb-21 03:49 344 46 gusting 70 3.9
2017-Feb-21 03:33 334 66 gusting 86 5.0
2017-Feb-21 03:18 318 39 gusting 64 4.4
2017-Feb-21 03:03 298 36 gusting 70 3.9
2017-Feb-21 02:48 275 32 gusting 63 4.4
2017-Feb-21 02:33 299 34 gusting 59 4.4
2017-Feb-21 02:18 309 38 gusting 59 4.4
2017-Feb-21 02:03 313 36 gusting 74 4.4
2017-Feb-21 01:48 286 32 gusting 53 5.0
2017-Feb-21 01:33 292 34 gusting 54 4.4
2017-Feb-21 01:18 303 37 gusting 67 4.4
2017-Feb-21 01:03 294 40 gusting 70 4.4
2017-Feb-21 00:48 283 18 gusting 40 3.9
2017-Feb-21 00:33 319 19 gusting 39 3.9
2017-Feb-21 00:18 355 39 gusting 66 4.4
2017-Feb-21 00:03 296 42 gusting 62 4.4
2017-Feb-20 23:49 293 49 gusting 79 4.4
2017-Feb-20 23:33 313 44 gusting 74 4.4
2017-Feb-20 23:18 295 56 gusting 74 4.4
2017-Feb-20 23:03 294 53 gusting 102 3.9
2017-Feb-20 22:48 306 66 gusting 91 5.6
2017-Feb-20 22:33 303 48 gusting 75 5.0
2017-Feb-20 22:18 276 54 gusting 87 5.6
2017-Feb-20 22:03 276 43 gusting 66 5.6
2017-Feb-20 21:48 288 55 gusting 81 5.6
2017-Feb-20 21:33 296 61 gusting 78 5.0
2017-Feb-20 21:18 304 61 gusting 89 5.0
2017-Feb-20 21:03 277 50 gusting 84 5.6
2017-Feb-20 20:48 311 52 gusting 72 5.6
2017-Feb-20 20:33 275 54 gusting 79 5.6
2017-Feb-20 20:18 275 50 gusting 66 5.6
2017-Feb-20 20:03 302 34 gusting 55 5.6
2017-Feb-20 19:48 299 34 gusting 58 6.1
2017-Feb-20 19:33 287 41 gusting 66 5.6
2017-Feb-20 19:18 292 48 gusting 72 5.6
2017-Feb-20 19:03 321 48 gusting 63 5.6
2017-Feb-20 18:48 303 41 gusting 59 5.6
2017-Feb-20 18:33 283 30 gusting 40 5.0
2017-Feb-20 18:18 297 24 gusting 39 5.0
2017-Feb-20 18:03 298 25 gusting 39 5.0
2017-Feb-20 17:48 321 14 gusting 25 5.0
2017-Feb-20 17:32 348 11 gusting 21 5.0
2017-Feb-20 17:18 299 18 gusting 25 5.0
2017-Feb-20 17:03 323 11 gusting 30 5.0
2017-Feb-20 16:47 314 13 gusting 43 5.6
2017-Feb-20 16:32 280 37 gusting 51 5.6
2017-Feb-20 16:17 300 37 gusting 59 5.6
2017-Feb-20 16:02 314 42 gusting 58 5.6
2017-Feb-20 15:47 301 45 gusting 65 5.6
2017-Feb-20 15:32 311 40 gusting 56 6.1
2017-Feb-20 15:17 269 36 gusting 47 5.6
2017-Feb-20 15:02 286 32 gusting 41 5.6
2017-Feb-20 14:47 298 27 gusting 39 5.6
2017-Feb-20 14:32 273 23 gusting 36 5.6
2017-Feb-20 14:17 288 32 gusting 48 5.6
2017-Feb-20 14:02 294 34 gusting 47 5.6
2017-Feb-20 13:47 290 33 gusting 51 6.1
2017-Feb-20 13:32 295 31 gusting 46 6.1
2017-Feb-20 13:17 274 32 gusting 46 6.1
2017-Feb-20 13:02 294 26 gusting 46 6.1
2017-Feb-20 12:47 279 33 gusting 48 6.1
2017-Feb-20 12:32 283 34 gusting 42 6.1
2017-Feb-20 12:17 275 27 gusting 40 6.1
2017-Feb-20 12:02 283 26 gusting 53 6.1
2017-Feb-20 11:47 278 28 gusting 41 6.1
2017-Feb-20 11:32 279 26 gusting 36 6.1
2017-Feb-20 11:17 265 27 gusting 43 6.1
2017-Feb-20 11:02 283 28 gusting 39 6.1
2017-Feb-20 10:47 291 26 gusting 39 6.1
2017-Feb-20 10:32 265 23 gusting 36 6.1
2017-Feb-20 10:17 261 21 gusting 33 6.1
2017-Feb-20 10:02 282 21 gusting 38 6.1
2017-Feb-20 09:47 279 23 gusting 38 6.1
2017-Feb-20 09:32 279 25 gusting 41 6.1
2017-Feb-20 09:17 324 28 gusting 42 6.1
2017-Feb-20 09:02 299 21 gusting 41 6.1
2017-Feb-20 08:46 309 26 gusting 39 6.1
2017-Feb-20 08:31 281 19 gusting 39 6.1
2017-Feb-20 08:16 269 15 gusting 31 6.1
2017-Feb-20 08:01 288 16 gusting 33 6.1
2017-Feb-20 07:46 286 26 gusting 36 6.1
2017-Feb-20 07:31 282 21 gusting 33 6.1
2017-Feb-20 07:16 284 31 gusting 45 6.1
2017-Feb-20 07:01 252 31 gusting 50 6.7
2017-Feb-20 06:46 281 26 gusting 42 6.1
2017-Feb-20 06:31 247 25 gusting 35 6.1
2017-Feb-20 06:16 266 16 gusting 33 6.1
2017-Feb-20 06:01 300 18 gusting 28 6.1
2017-Feb-20 05:46 299 9 gusting 15 6.1
2017-Feb-20 05:31 292 11 gusting 18 6.1
2017-Feb-20 05:16 290 13 gusting 25 6.1
2017-Feb-20 05:01 300 17 gusting 26 6.1
2017-Feb-20 04:46 300 17 gusting 33 6.1
2017-Feb-20 04:31 295 25 gusting 37 6.1
2017-Feb-20 04:16 275 28 gusting 39 6.1
2017-Feb-20 04:01 282 25 gusting 31 6.1
2017-Feb-20 03:46 290 24 gusting 34 6.1
2017-Feb-20 03:31 285 26 gusting 39 6.1
2017-Feb-20 03:16 286 20 gusting 38 6.1
2017-Feb-20 03:01 290 22 gusting 38 6.1
2017-Feb-20 02:46 289 29 gusting 46 6.1
2017-Feb-20 02:31 286 22 gusting 41 6.1
2017-Feb-20 02:16 300 29 gusting 48 6.1
2017-Feb-20 02:01 282 40 gusting 58 6.1
2017-Feb-20 01:46 314 35 gusting 51 6.7
2017-Feb-20 01:31 294 33 gusting 49 6.7
2017-Feb-20 01:16 276 36 gusting 52 6.7
2017-Feb-20 01:01 287 38 gusting 52 6.7
2017-Feb-20 00:46 271 27 gusting 52 6.7
2017-Feb-20 00:31 296 33 gusting 49 6.7
2017-Feb-20 00:16 260 27 gusting 46 6.7
2017-Feb-20 00:01 240 19 gusting 54 6.1
2017-Feb-19 23:46 250 28 gusting 54 6.1
2017-Feb-19 23:31 208 25 gusting 55 5.6
2017-Feb-19 23:16 196 32 gusting 61 5.6
2017-Feb-19 23:01 210 26 gusting 48 5.6
2017-Feb-19 22:46 208 27 gusting 45 5.6
2017-Feb-19 22:31 175 29 gusting 52 5.6
2017-Feb-19 22:15 178 24 gusting 52 5.6
2017-Feb-19 22:00 202 26 gusting 42 5.6
2017-Feb-19 21:45 215 25 gusting 48 5.6
2017-Feb-19 21:30 216 24 gusting 41 5.6
2017-Feb-19 21:15 207 20 gusting 48 5.6
2017-Feb-19 21:00 261 22 gusting 40 5.6
2017-Feb-19 20:45 197 25 gusting 45 5.6
2017-Feb-19 20:30 178 24 gusting 49 5.6
2017-Feb-19 20:15 232 27 gusting 53 5.6
2017-Feb-19 20:00 239 23 gusting 45 5.6
2017-Feb-19 19:45 223 20 gusting 38 5.6
2017-Feb-19 19:30 202 18 gusting 40 5.6
2017-Feb-19 19:15 204 21 gusting 40 5.6
2017-Feb-19 19:00 251 19 gusting 43 5.6
2017-Feb-19 18:45 256 22 gusting 36 5.6
2017-Feb-19 18:30 259 23 gusting 37 5.6
2017-Feb-19 18:15 268 26 gusting 41 5.6
2017-Feb-19 18:01 265 19 gusting 32 5.6
2017-Feb-19 17:45 238 15 gusting 25 5.6
2017-Feb-19 17:30 257 17 gusting 27 5.6
2017-Feb-19 17:15 272 26 gusting 38 5.6
2017-Feb-19 17:00 245 16 gusting 27 5.6
2017-Feb-19 16:45 236 23 gusting 30 5.6
2017-Feb-19 16:30 250 19 gusting 37 5.6
2017-Feb-19 16:15 255 19 gusting 34 5.6
2017-Feb-19 16:00 253 24 gusting 34 5.6
2017-Feb-19 15:45 252 17 gusting 33 5.6
2017-Feb-19 15:30 265 19 gusting 30 5.6
2017-Feb-19 15:14 252 16 gusting 24 5.6
2017-Feb-19 14:59 262 12 gusting 29 6.1
2017-Feb-19 14:44 261 13 gusting 27 6.1
2017-Feb-19 14:29 281 17 gusting 33 6.1
2017-Feb-19 14:15 298 19 gusting 35 6.1
2017-Feb-19 13:59 271 15 gusting 27 6.1
2017-Feb-19 13:44 290 13 gusting 27 6.1
2017-Feb-19 13:29 279 20 gusting 31 6.1
2017-Feb-19 13:14 271 13 gusting 23 6.1
2017-Feb-19 12:59 287 11 gusting 26 6.1
2017-Feb-19 12:44 292 13 gusting 25 6.1
2017-Feb-19 12:29 270 20 gusting 33 6.1
2017-Feb-19 12:14 272 17 gusting 28 6.1
2017-Feb-19 11:59 290 13 gusting 28 6.1
2017-Feb-19 11:44 272 13 gusting 26 6.1
2017-Feb-19 11:29 289 20 gusting 32 6.1
2017-Feb-19 11:14 288 33 gusting 45 6.1
2017-Feb-19 10:59 270 15 gusting 23 6.1
2017-Feb-19 10:44 269 14 gusting 23 6.1
2017-Feb-19 10:29 300 9 gusting 28 6.1
2017-Feb-19 10:14 269 11 gusting 20 6.1
2017-Feb-19 09:59 279 20 gusting 30 6.1
2017-Feb-19 09:44 275 17 gusting 26 6.1
2017-Feb-19 09:29 282 7 gusting 21 6.1
2017-Feb-19 09:14 269 12 gusting 20 5.6
2017-Feb-19 08:59 261 10 gusting 18 5.6
2017-Feb-19 08:44 296 13 gusting 26 5.6
2017-Feb-19 08:29 294 7 gusting 18 5.6
2017-Feb-19 08:14 296 16 gusting 25 5.6